Time;durP1;ratioP1;P1;durP2;ratioP2;P2;SDS_P1;SDS_P2;PMS_P1;PMS_P2;Temp;Humidity;BMP_temperature;BMP_pressure;BME280_temperature;BME280_humidity;BME280_pressure;Samples;Min_cycle;Max_cycle;Signal;HPM_P1;HPM_P2
2021/11/05 05:02:03;;;;;;;29.40;14.60;;;7.90;99.90;;;;;;5201087;23;20741;-72
2021/11/05 05:04:30;;;;;;;26.27;13.73;;;8.00;99.90;;;;;;4938822;29;20229;-72
2021/11/05 05:06:57;;;;;;;26.35;14.23;;;8.00;99.90;;;;;;4949079;29;20233;-72
2021/11/05 05:09:24;;;;;;;27.80;14.02;;;8.00;99.90;;;;;;4935494;29;20305;-70
2021/11/05 05:11:50;;;;;;;20.23;12.57;;;8.00;99.90;;;;;;4940534;29;20316;-72
2021/11/05 05:14:17;;;;;;;25.38;13.60;;;8.00;99.90;;;;;;4956034;29;20210;-71
2021/11/05 05:16:44;;;;;;;25.70;16.10;;;8.00;99.90;;;;;;4957949;29;20247;-72
2021/11/05 05:19:12;;;;;;;26.30;13.82;;;8.00;99.90;;;;;;4957980;29;20573;-70
2021/11/05 05:21:39;;;;;;;23.77;13.18;;;8.00;99.90;;;;;;4959562;28;20236;-71
2021/11/05 05:24:06;;;;;;;23.63;13.88;;;8.00;99.90;;;;;;4961758;29;20210;-70
2021/11/05 05:26:32;;;;;;;28.20;14.02;;;8.00;99.90;;;;;;4960287;29;20270;-72
2021/11/05 05:28:59;;;;;;;24.67;13.70;;;8.00;99.90;;;;;;4961711;29;20208;-72
2021/11/05 05:31:26;;;;;;;25.48;14.60;;;8.00;99.90;;;;;;4962198;29;20233;-72
2021/11/05 05:33:52;;;;;;;26.50;14.52;;;8.00;99.90;;;;;;4965405;29;20427;-73
2021/11/05 05:36:20;;;;;;;21.48;13.00;;;8.00;99.90;;;;;;4964198;29;20225;-73
2021/11/05 05:38:47;;;;;;;21.25;13.48;;;8.00;99.90;;;;;;4960894;29;20629;-72
2021/11/05 05:41:14;;;;;;;27.35;13.15;;;8.00;99.90;;;;;;4955815;29;20225;-71
2021/11/05 05:43:40;;;;;;;27.05;14.75;;;8.00;99.90;;;;;;4964712;29;20217;-72
2021/11/05 05:46:07;;;;;;;22.98;13.95;;;8.00;99.90;;;;;;4964698;29;20229;-72
2021/11/05 05:48:34;;;;;;;22.00;13.00;;;8.00;99.90;;;;;;4965168;29;20250;-72
2021/11/05 05:51:00;;;;;;;24.60;13.73;;;8.00;99.90;;;;;;4955507;29;20225;-71
2021/11/05 05:53:28;;;;;;;28.45;14.00;;;7.90;99.90;;;;;;4952928;29;20205;-71
2021/11/05 05:55:55;;;;;;;27.60;14.65;;;7.90;99.90;;;;;;4952569;29;20690;-71
2021/11/05 05:58:22;;;;;;;29.08;14.10;;;7.90;99.90;;;;;;4950224;29;20209;-71
2021/11/05 06:00:49;;;;;;;29.38;15.52;;;7.90;99.90;;;;;;4950959;29;20912;-71
2021/11/05 06:03:16;;;;;;;29.70;14.90;;;7.80;99.90;;;;;;4952158;28;20316;-71
2021/11/05 06:05:43;;;;;;;29.52;14.23;;;7.80;99.90;;;;;;4952182;29;20232;-71
2021/11/05 06:08:09;;;;;;;25.98;13.40;;;7.80;99.90;;;;;;4950221;29;20213;-71
2021/11/05 06:10:38;;;;;;;27.20;14.60;;;7.80;99.90;;;;;;4950089;29;20221;-71
2021/11/05 06:13:05;;;;;;;27.55;14.43;;;7.80;99.90;;;;;;4950210;29;20216;-72
2021/11/05 06:15:32;;;;;;;25.95;14.80;;;7.80;99.90;;;;;;4950284;29;20209;-71
2021/11/05 06:17:58;;;;;;;26.15;15.43;;;7.80;99.90;;;;;;4952481;29;20209;-71
2021/11/05 06:20:25;;;;;;;30.50;14.90;;;7.80;99.90;;;;;;4951803;29;20205;-71
2021/11/05 06:22:52;;;;;;;29.23;15.65;;;7.80;99.90;;;;;;4945926;29;20665;-70
2021/11/05 06:25:19;;;;;;;28.83;14.90;;;7.70;99.90;;;;;;4941143;29;20201;-71
2021/11/05 06:27:47;;;;;;;28.42;14.00;;;7.70;99.90;;;;;;4952050;29;20324;-72
2021/11/05 06:30:14;;;;;;;29.40;14.55;;;7.70;99.90;;;;;;4951981;29;20205;-71
2021/11/05 06:32:41;;;;;;;24.58;14.25;;;7.70;99.90;;;;;;4953106;28;20300;-71
2021/11/05 06:35:10;;;;;;;26.80;14.95;;;7.70;99.90;;;;;;4954467;29;20303;-70
2021/11/05 06:37:37;;;;;;;24.20;14.32;;;7.70;99.90;;;;;;4955626;29;20201;-70
2021/11/05 06:40:05;;;;;;;21.30;13.60;;;7.70;99.90;;;;;;4956671;29;20260;-71
2021/11/05 06:42:31;;;;;;;28.45;14.93;;;7.70;99.90;;;;;;4967020;28;20331;-70
2021/11/05 06:45:00;;;;;;;26.30;13.60;;;7.60;99.90;;;;;;4966128;29;20221;-71
2021/11/05 06:47:26;;;;;;;26.30;14.40;;;7.60;99.90;;;;;;4955746;29;20220;-72
2021/11/05 06:49:53;;;;;;;24.48;13.40;;;7.60;99.90;;;;;;4955530;28;20208;-72
2021/11/05 06:52:20;;;;;;;25.35;13.27;;;7.60;99.90;;;;;;4953969;29;20224;-71
2021/11/05 06:54:47;;;;;;;25.85;14.98;;;7.60;99.90;;;;;;4952464;28;20735;-72
2021/11/05 06:57:13;;;;;;;32.97;16.17;;;7.60;99.90;;;;;;4952975;29;20593;-72
2021/11/05 06:59:40;;;;;;;26.88;15.35;;;7.60;99.90;;;;;;4954918;29;20337;-72
2021/11/05 07:02:09;;;;;;;24.20;14.27;;;7.50;99.90;;;;;;4955030;29;20247;-70
2021/11/05 07:04:35;;;;;;;28.75;15.32;;;7.50;99.90;;;;;;4956253;29;20264;-72
2021/11/05 07:07:02;;;;;;;27.50;16.55;;;7.50;99.90;;;;;;4954251;29;20216;-72
2021/11/05 07:09:29;;;;;;;27.30;15.57;;;7.50;99.90;;;;;;4953330;29;20209;-72
2021/11/05 07:11:56;;;;;;;30.98;15.15;;;7.50;99.90;;;;;;4954652;28;20221;-71
2021/11/05 07:14:23;;;;;;;28.45;15.02;;;7.50;99.90;;;;;;4955126;29;20227;-71
2021/11/05 07:16:50;;;;;;;30.63;16.10;;;7.50;99.90;;;;;;4955155;29;20212;-71
2021/11/05 07:19:19;;;;;;;28.00;14.55;;;7.50;99.90;;;;;;4955275;29;20217;-73
2021/11/05 07:21:46;;;;;;;23.55;14.05;;;7.50;99.90;;;;;;4955096;28;20317;-72
2021/11/05 07:24:13;;;;;;;28.08;14.85;;;7.50;99.90;;;;;;4955461;29;20205;-71
2021/11/05 07:26:42;;;;;;;31.63;15.75;;;7.50;99.90;;;;;;4954877;29;20232;-72
2021/11/05 07:29:11;;;;;;;28.90;15.27;;;7.50;99.90;;;;;;4955433;28;20580;-71
2021/11/05 07:31:39;;;;;;;26.95;15.20;;;7.50;99.90;;;;;;4954854;29;20235;-72
2021/11/05 07:34:05;;;;;;;33.15;16.92;;;7.50;99.90;;;;;;4955402;29;20205;-72
2021/11/05 07:36:34;;;;;;;25.92;15.02;;;7.50;99.90;;;;;;4955153;29;20224;-71
2021/11/05 07:39:01;;;;;;;29.55;16.73;;;7.50;99.90;;;;;;4954226;29;20621;-70
2021/11/05 07:41:27;;;;;;;26.20;15.70;;;7.50;99.90;;;;;;4954585;29;20308;-71
2021/11/05 07:43:55;;;;;;;26.65;15.27;;;7.60;99.90;;;;;;4956372;28;20272;-72
2021/11/05 07:46:21;;;;;;;30.98;16.33;;;7.60;99.90;;;;;;4954586;28;20322;-72
2021/11/05 07:48:48;;;;;;;27.63;16.10;;;7.60;99.90;;;;;;4955088;28;20217;-72
2021/11/05 07:51:15;;;;;;;25.63;14.48;;;7.60;99.90;;;;;;4954996;29;20586;-71
2021/11/05 07:53:43;;;;;;;26.48;14.35;;;7.70;99.90;;;;;;4954823;29;20205;-72
2021/11/05 07:56:09;;;;;;;21.83;13.93;;;7.70;99.90;;;;;;4954813;29;20209;-71
2021/11/05 07:58:36;;;;;;;25.80;14.70;;;7.70;99.90;;;;;;4954982;29;20216;-72
2021/11/05 08:01:03;;;;;;;25.92;13.57;;;7.70;99.90;;;;;;4954270;29;20280;-72
2021/11/05 08:03:30;;;;;;;26.17;14.27;;;7.80;99.90;;;;;;4954424;28;20201;-71
2021/11/05 08:05:56;;;;;;;24.88;14.52;;;7.80;99.90;;;;;;4963102;28;20217;-71
2021/11/05 08:08:23;;;;;;;31.52;14.90;;;7.90;99.90;;;;;;4949815;29;20221;-73
2021/11/05 08:10:51;;;;;;;26.63;14.38;;;7.90;99.90;;;;;;4961761;28;20533;-71
2021/11/05 08:13:19;;;;;;;28.13;14.27;;;8.00;99.90;;;;;;4953889;29;20213;-72
2021/11/05 08:15:46;;;;;;;22.67;14.43;;;8.00;99.90;;;;;;4953936;29;20213;-69
2021/11/05 08:18:13;;;;;;;19.00;12.18;;;8.00;99.90;;;;;;4953446;28;20212;-72
2021/11/05 08:20:40;;;;;;;27.23;13.73;;;8.10;99.90;;;;;;4952961;29;20225;-72
2021/11/05 08:23:08;;;;;;;24.67;12.70;;;8.10;99.90;;;;;;4957445;28;20219;-71
2021/11/05 08:25:35;;;;;;;23.88;12.32;;;8.20;99.90;;;;;;4953636;29;20208;-71
2021/11/05 08:28:04;;;;;;;25.02;13.30;;;8.30;99.90;;;;;;4953985;29;20221;-71
2021/11/05 08:30:31;;;;;;;24.02;13.48;;;8.40;99.90;;;;;;4953537;29;20205;-72
2021/11/05 08:33:00;;;;;;;24.85;14.57;;;8.70;99.90;;;;;;4953911;29;20213;-70
2021/11/05 08:35:30;;;;;;;18.48;12.68;;;9.00;99.90;;;;;;4953600;29;20201;-71
2021/11/05 08:37:57;;;;;;;17.25;12.90;;;9.10;99.90;;;;;;4953688;29;20215;-71
2021/11/05 08:40:25;;;;;;;14.90;11.38;;;9.30;99.90;;;;;;4953163;28;20209;-70
2021/11/05 08:42:51;;;;;;;14.45;10.68;;;9.30;99.90;;;;;;4953296;29;20212;-70
2021/11/05 08:45:20;;;;;;;15.75;10.63;;;9.30;99.90;;;;;;4953788;29;20205;-71
2021/11/05 08:47:46;;;;;;;13.70;10.43;;;9.30;99.90;;;;;;4953350;29;20240;-71
2021/11/05 08:50:15;;;;;;;17.38;10.98;;;9.30;99.90;;;;;;4952704;29;20654;-71
2021/11/05 08:52:42;;;;;;;17.35;10.45;;;9.30;99.90;;;;;;4953066;29;20206;-71
2021/11/05 08:55:10;;;;;;;15.55;10.00;;;9.30;99.90;;;;;;4960716;28;20205;-72
2021/11/05 08:57:38;;;;;;;14.00;11.13;;;9.30;99.90;;;;;;4956487;28;20206;-72
2021/11/05 09:00:07;;;;;;;16.17;10.25;;;9.40;99.90;;;;;;4953037;29;20216;-70
2021/11/05 09:02:35;;;;;;;16.02;9.48;;;9.50;99.90;;;;;;4952383;29;20239;-71
2021/11/05 09:05:03;;;;;;;10.85;9.20;;;9.50;99.90;;;;;;4952956;29;20205;-71
2021/11/05 09:07:29;;;;;;;10.18;7.60;;;9.50;99.90;;;;;;4951998;29;20584;-71
2021/11/05 09:09:57;;;;;;;11.85;8.02;;;9.50;99.90;;;;;;4952447;29;20701;-71
2021/11/05 09:12:23;;;;;;;10.00;8.32;;;9.50;99.90;;;;;;4952638;29;20232;-72
2021/11/05 09:14:50;;;;;;;8.48;7.28;;;9.50;99.90;;;;;;4952800;29;20217;-71
2021/11/05 09:17:18;;;;;;;9.93;7.50;;;9.60;99.90;;;;;;4952771;29;20236;-71
2021/11/05 09:19:46;;;;;;;7.97;7.25;;;9.60;99.90;;;;;;4952681;29;20612;-71
2021/11/05 09:22:12;;;;;;;11.02;7.40;;;9.60;99.90;;;;;;4952190;28;20225;-69
2021/11/05 09:24:39;;;;;;;14.52;7.30;;;9.70;99.90;;;;;;4952833;29;20209;-70
2021/11/05 09:27:06;;;;;;;8.98;7.78;;;9.70;99.90;;;;;;4952120;29;20731;-71
2021/11/05 09:29:33;;;;;;;7.55;6.72;;;9.70;99.90;;;;;;4952639;29;20205;-71
2021/11/05 09:32:00;;;;;;;8.43;7.10;;;9.70;99.90;;;;;;4953006;28;20232;-72
2021/11/05 09:34:31;;;;;;;7.80;6.82;;;9.70;99.90;;;;;;4951831;28;20209;-71
2021/11/05 09:36:59;;;;;;;9.45;7.55;;;9.70;99.90;;;;;;4951634;29;20249;-72
2021/11/05 09:39:27;;;;;;;10.73;6.85;;;9.70;99.90;;;;;;4952113;28;20258;-72
2021/11/05 09:41:54;;;;;;;7.75;7.00;;;9.80;99.90;;;;;;4951276;29;20230;-71
2021/11/05 09:44:22;;;;;;;9.00;6.07;;;9.80;99.90;;;;;;4948137;28;20216;-72
2021/11/05 09:46:49;;;;;;;7.05;6.00;;;9.90;99.90;;;;;;4956924;28;20654;-71
2021/11/05 09:49:16;;;;;;;6.93;5.72;;;9.90;99.90;;;;;;4954616;28;20582;-74
2021/11/05 09:51:43;;;;;;;8.68;6.88;;;10.00;99.90;;;;;;4947946;29;20225;-73
2021/11/05 09:54:13;;;;;;;6.88;5.80;;;10.00;99.90;;;;;;4951509;28;21045;-72
2021/11/05 09:56:39;;;;;;;6.78;5.80;;;10.00;99.90;;;;;;4949299;28;20209;-72
2021/11/05 09:59:07;;;;;;;6.43;5.80;;;10.10;99.90;;;;;;4948181;28;20587;-71
2021/11/05 10:01:34;;;;;;;6.43;5.72;;;10.10;99.90;;;;;;4959593;28;20637;-72
2021/11/05 10:04:02;;;;;;;6.15;5.63;;;10.20;99.90;;;;;;4955812;28;20503;-72
2021/11/05 10:06:28;;;;;;;5.05;4.78;;;10.20;99.90;;;;;;4953225;28;20201;-71
2021/11/05 10:08:56;;;;;;;5.68;4.88;;;10.20;99.90;;;;;;4959797;28;20700;-71
2021/11/05 10:11:27;;;;;;;5.45;5.03;;;10.20;99.90;;;;;;4957937;28;20235;-72
2021/11/05 10:13:55;;;;;;;6.05;4.70;;;10.20;99.90;;;;;;4958606;28;20233;-71
2021/11/05 10:16:25;;;;;;;5.85;4.45;;;10.30;99.90;;;;;;4958172;29;20211;-71
2021/11/05 10:18:57;;;;;;;5.40;4.90;;;10.30;99.90;;;;;;4958656;29;20245;-72
2021/11/05 10:21:24;;;;;;;4.22;3.92;;;10.30;99.90;;;;;;4952476;29;20221;-72
2021/11/05 10:23:51;;;;;;;4.95;4.45;;;10.40;99.90;;;;;;4962055;28;20219;-73
2021/11/05 10:26:25;;;;;;;4.43;4.07;;;10.30;99.90;;;;;;4967783;28;20282;-72
2021/11/05 10:28:53;;;;;;;5.22;4.82;;;10.40;99.90;;;;;;4963006;28;20236;-73
2021/11/05 10:31:20;;;;;;;5.38;4.72;;;10.50;99.90;;;;;;4960011;28;20236;-72
2021/11/05 10:33:48;;;;;;;7.30;4.63;;;10.50;99.90;;;;;;4956753;29;20213;-71
2021/11/05 10:36:17;;;;;;;4.78;4.28;;;10.50;99.90;;;;;;4966494;28;20211;-72
2021/11/05 10:38:46;;;;;;;7.60;4.05;;;10.50;99.90;;;;;;4958063;29;20209;-72
2021/11/05 10:41:15;;;;;;;4.68;4.00;;;10.60;99.90;;;;;;4956935;29;20312;-71
2021/11/05 10:43:44;;;;;;;3.72;3.38;;;10.60;99.90;;;;;;4957386;28;20236;-71
2021/11/05 10:46:27;;;;;;;3.55;3.38;;;10.70;99.90;;;;;;4957639;28;20208;-71
2021/11/05 10:48:55;;;;;;;3.53;3.25;;;10.90;99.90;;;;;;4957776;29;20309;-71
2021/11/05 10:51:26;;;;;;;2.90;2.70;;;11.00;99.90;;;;;;4956407;28;20228;-72
2021/11/05 10:53:55;;;;;;;3.25;3.05;;;11.10;99.90;;;;;;4959283;28;20235;-72
2021/11/05 10:56:24;;;;;;;2.88;2.83;;;11.10;99.90;;;;;;4962262;28;20216;-72
2021/11/05 10:58:57;;;;;;;3.40;3.20;;;11.20;99.90;;;;;;4961570;28;20232;-73
2021/11/05 11:01:29;;;;;;;2.80;2.10;;;11.20;99.90;;;;;;4958435;28;20236;-71
2021/11/05 11:03:59;;;;;;;4.93;2.90;;;11.10;99.90;;;;;;4958095;29;20217;-72
2021/11/05 11:06:27;;;;;;;2.72;2.63;;;11.10;99.90;;;;;;4957866;29;20212;-72
2021/11/05 11:08:56;;;;;;;3.25;2.65;;;11.10;99.90;;;;;;4957463;29;20229;-69
2021/11/05 11:11:26;;;;;;;3.45;2.90;;;11.10;99.90;;;;;;4957824;28;20224;-71
2021/11/05 11:13:54;;;;;;;4.38;2.83;;;11.10;99.90;;;;;;4960320;28;20209;-72
2021/11/05 11:16:23;;;;;;;3.08;2.88;;;11.20;99.90;;;;;;4957852;28;20201;-72
2021/11/05 11:19:01;;;;;;;2.78;2.55;;;11.30;99.90;;;;;;4955508;28;20205;-71
2021/11/05 11:21:30;;;;;;;2.17;1.85;;;11.30;99.90;;;;;;4955184;29;20247;-71
2021/11/05 11:23:57;;;;;;;2.63;2.40;;;11.40;99.90;;;;;;4955076;29;20587;-72
2021/11/05 11:26:26;;;;;;;3.45;1.98;;;11.50;99.90;;;;;;4954002;29;20693;-71
2021/11/05 11:28:53;;;;;;;2.08;2.00;;;11.50;99.90;;;;;;4954046;29;20620;-71
2021/11/05 11:31:20;;;;;;;1.25;1.25;;;11.60;99.90;;;;;;4954070;29;20229;-71
2021/11/05 11:33:47;;;;;;;2.23;2.03;;;11.60;99.90;;;;;;4953888;29;20235;-72
2021/11/05 11:36:17;;;;;;;1.20;1.20;;;11.60;99.90;;;;;;4954860;29;20841;-71
2021/11/05 11:38:45;;;;;;;2.60;1.75;;;11.60;99.90;;;;;;4953805;29;20701;-71
2021/11/05 11:41:12;;;;;;;3.03;1.40;;;11.60;99.90;;;;;;4953763;29;20232;-71
2021/11/05 11:43:40;;;;;;;2.80;1.50;;;11.70;99.90;;;;;;4949476;28;20465;-71
2021/11/05 11:46:07;;;;;;;4.43;1.20;;;11.80;99.90;;;;;;4954635;29;20217;-71
2021/11/05 11:48:44;;;;;;;1.23;1.23;;;11.80;99.90;;;;;;4953819;29;20225;-71
2021/11/05 11:51:30;;;;;;;1.55;1.08;;;11.80;99.90;;;;;;4954544;29;20578;-71
2021/11/05 11:54:02;;;;;;;1.20;1.10;;;11.80;99.90;;;;;;4954147;29;20236;-71
2021/11/05 11:56:33;;;;;;;1.00;1.00;;;11.80;99.90;;;;;;4953504;29;20213;-71
2021/11/05 11:59:01;;;;;;;0.97;0.97;;;11.80;99.90;;;;;;4954379;29;20941;-72
2021/11/05 12:01:30;;;;;;;1.30;0.83;;;11.80;99.90;;;;;;4953777;29;20497;-72
2021/11/05 12:03:59;;;;;;;1.27;1.27;;;11.80;99.90;;;;;;4954304;29;20468;-72
2021/11/05 12:06:47;;;;;;;2.70;2.50;;;11.80;99.90;;;;;;4953694;29;20213;-72
2021/11/05 12:09:24;;;;;;;1.63;1.10;;;11.90;99.90;;;;;;4953498;29;20533;-71
2021/11/05 12:11:51;;;;;;;0.95;0.95;;;11.90;99.90;;;;;;4953705;28;20317;-70
2021/11/05 12:14:19;;;;;;;4.20;3.30;;;11.90;99.90;;;;;;4954173;28;20260;-72
2021/11/05 12:17:01;;;;;;;1.43;1.33;;;11.90;99.90;;;;;;4954215;28;20556;-70
2021/11/05 12:19:35;;;;;;;1.37;1.33;;;11.90;99.90;;;;;;4954097;28;20471;-70
2021/11/05 12:22:13;;;;;;;1.60;0.87;;;11.90;99.90;;;;;;4949300;28;20519;-71
2021/11/05 12:24:42;;;;;;;0.70;0.70;;;11.90;99.90;;;;;;4962785;28;20487;-73
2021/11/05 12:27:16;;;;;;;1.53;0.90;;;11.80;99.90;;;;;;4956061;28;20496;-70
2021/11/05 12:29:58;;;;;;;0.60;0.60;;;11.80;99.90;;;;;;4956273;28;20539;-72
2021/11/05 12:32:38;;;;;;;1.53;0.80;;;11.90;99.90;;;;;;4966032;28;20477;-71
2021/11/05 12:35:18;;;;;;;1.30;0.80;;;11.90;99.90;;;;;;4966164;28;20455;-72
2021/11/05 12:37:55;;;;;;;0.60;0.60;;;11.90;99.90;;;;;;4967615;28;20492;-73
2021/11/05 12:40:31;;;;;;;0.77;0.50;;;11.80;99.90;;;;;;4966556;29;20540;-72
2021/11/05 12:43:01;;;;;;;1.30;0.90;;;11.80;99.90;;;;;;4957240;29;20550;-70
2021/11/05 12:45:48;;;;;;;1.10;0.50;;;11.70;99.90;;;;;;4953287;29;20657;-71
2021/11/05 12:48:15;;;;;;;1.05;0.65;;;11.70;99.90;;;;;;4953125;28;20287;-71
2021/11/05 12:50:45;;;;;;;0.70;0.63;;;11.70;99.90;;;;;;4952975;29;20314;-70
2021/11/05 12:53:12;;;;;;;1.27;0.57;;;11.70;99.90;;;;;;4941680;29;20288;-70
2021/11/05 12:55:42;;;;;;;1.95;0.63;;;11.70;99.90;;;;;;4952550;29;20951;-70
2021/11/05 12:58:11;;;;;;;2.38;1.10;;;11.70;99.90;;;;;;4952819;29;20209;-71
2021/11/05 13:00:40;;;;;;;0.75;0.63;;;11.70;99.90;;;;;;4952974;29;20241;-70
2021/11/05 13:03:09;;;;;;;0.50;0.50;;;11.80;99.90;;;;;;4952990;29;20220;-70
2021/11/05 13:05:37;;;;;;;0.80;0.80;;;11.80;99.90;;;;;;4952956;29;20224;-71
2021/11/05 13:08:07;;;;;;;0.77;0.77;;;11.80;99.90;;;;;;4952624;28;20702;-70
2021/11/05 13:10:36;;;;;;;0.50;0.50;;;11.80;99.90;;;;;;4952784;28;20256;-70
2021/11/05 13:13:06;;;;;;;3.50;0.57;;;11.70;99.90;;;;;;4953248;28;20588;-73
2021/11/05 13:15:35;;;;;;;0.63;0.30;;;11.70;99.90;;;;;;4952829;28;20301;-72
2021/11/05 13:18:03;;;;;;;1.40;0.40;;;11.70;99.90;;;;;;4952832;28;20205;-70
2021/11/05 13:20:31;;;;;;;0.70;0.70;;;11.70;99.90;;;;;;4952516;28;20252;-70
2021/11/05 13:22:59;;;;;;;1.73;0.68;;;11.70;99.90;;;;;;4952403;29;20236;-70
2021/11/05 13:25:29;;;;;;;0.30;0.30;;;11.70;99.90;;;;;;4952682;29;20213;-69
2021/11/05 13:28:05;;;;;;;0.80;0.40;;;11.70;99.90;;;;;;4952151;28;20252;-72
2021/11/05 13:30:37;;;;;;;1.15;0.73;;;11.70;99.90;;;;;;4952733;29;20213;-69
2021/11/05 13:33:05;;;;;;;1.85;0.68;;;11.70;99.90;;;;;;4952395;29;20220;-70
2021/11/05 13:35:41;;;;;;;2.70;0.70;;;11.70;99.90;;;;;;4952306;29;20202;-70
2021/11/05 13:38:09;;;;;;;0.95;0.68;;;11.70;99.90;;;;;;4952586;29;20212;-70
2021/11/05 13:40:44;;;;;;;1.27;0.68;;;11.70;99.90;;;;;;4953093;29;20237;-71
2021/11/05 13:43:13;;;;;;;4.13;0.85;;;11.70;99.90;;;;;;4941667;29;20213;-71
2021/11/05 13:45:44;;;;;;;1.90;1.25;;;11.60;99.90;;;;;;4944738;29;20236;-72
2021/11/05 13:48:15;;;;;;;0.95;0.60;;;11.70;99.90;;;;;;4952644;29;20235;-71
2021/11/05 13:50:42;;;;;;;1.00;0.50;;;11.70;99.90;;;;;;4951735;29;20229;-71
2021/11/05 13:53:09;;;;;;;0.70;0.70;;;11.70;99.90;;;;;;4951965;29;20275;-70
2021/11/05 13:55:38;;;;;;;2.47;0.90;;;11.60;99.90;;;;;;4952112;29;20216;-69
2021/11/05 13:58:07;;;;;;;1.60;0.75;;;11.60;99.90;;;;;;4951909;29;20216;-72
2021/11/05 14:00:40;;;;;;;1.52;1.42;;;11.50;99.90;;;;;;4952197;29;20225;-71
2021/11/05 14:03:07;;;;;;;1.30;1.30;;;11.40;99.90;;;;;;4952385;29;20208;-71
2021/11/05 14:05:34;;;;;;;0.82;0.82;;;11.30;99.90;;;;;;4952418;29;20205;-71
2021/11/05 14:08:02;;;;;;;2.22;1.13;;;11.20;99.90;;;;;;4951849;28;20213;-72
2021/11/05 14:10:30;;;;;;;1.30;1.30;;;11.10;99.90;;;;;;4951918;28;20205;-71
2021/11/05 14:12:57;;;;;;;1.55;1.45;;;11.10;99.90;;;;;;4952522;28;20224;-70
2021/11/05 14:15:25;;;;;;;2.35;1.45;;;11.10;99.90;;;;;;4951716;28;20212;-71
2021/11/05 14:17:54;;;;;;;1.30;1.30;;;11.10;99.90;;;;;;4951388;28;20696;-71
2021/11/05 14:20:28;;;;;;;1.50;1.40;;;11.10;99.90;;;;;;4951862;28;20587;-71
2021/11/05 14:22:55;;;;;;;4.30;1.95;;;11.00;99.90;;;;;;4960118;28;20212;-71
2021/11/05 14:25:25;;;;;;;1.90;1.15;;;11.00;99.90;;;;;;4954543;28;20215;-72
2021/11/05 14:27:53;;;;;;;1.33;1.33;;;11.00;99.90;;;;;;4951206;29;20209;-70
2021/11/05 14:30:22;;;;;;;3.47;2.00;;;11.00;99.90;;;;;;4952244;28;20232;-72
2021/11/05 14:32:52;;;;;;;1.60;1.50;;;11.00;99.90;;;;;;4953300;28;20267;-72
2021/11/05 14:35:22;;;;;;;1.70;1.33;;;11.00;99.90;;;;;;4953252;28;20211;-71
2021/11/05 14:37:51;;;;;;;1.55;1.55;;;11.00;99.90;;;;;;4952467;28;20659;-72
2021/11/05 14:40:21;;;;;;;1.50;1.23;;;10.90;99.90;;;;;;4951468;28;20240;-71
2021/11/05 14:43:00;;;;;;;2.72;1.60;;;11.00;99.90;;;;;;4948579;29;20202;-70
2021/11/05 14:45:29;;;;;;;1.40;1.30;;;11.10;99.90;;;;;;4951754;29;20197;-67
2021/11/05 14:47:56;;;;;;;1.95;1.00;;;11.10;99.90;;;;;;4951130;29;20217;-67
2021/11/05 14:50:27;;;;;;;0.60;0.50;;;11.10;99.90;;;;;;4951613;29;20229;-67
2021/11/05 14:52:57;;;;;;;2.55;0.75;;;11.10;99.90;;;;;;4951661;28;20244;-67
2021/11/05 14:55:37;;;;;;;1.08;1.08;;;11.00;99.90;;;;;;4946153;29;20664;-70
2021/11/05 14:58:12;;;;;;;2.00;1.90;;;11.00;99.90;;;;;;4955619;28;20208;-70
2021/11/05 15:00:40;;;;;;;1.17;1.17;;;11.00;99.90;;;;;;4955658;29;20260;-70
2021/11/05 15:03:18;;;;;;;2.13;1.10;;;11.00;99.90;;;;;;4955533;29;20193;-70
2021/11/05 15:05:50;;;;;;;1.00;1.00;;;10.90;99.90;;;;;;4953687;28;20232;-70
2021/11/05 15:08:17;;;;;;;0.82;0.82;;;10.90;99.90;;;;;;4954914;28;20205;-69
2021/11/05 15:10:44;;;;;;;1.30;0.85;;;10.90;99.90;;;;;;4955185;29;20665;-70
2021/11/05 15:13:13;;;;;;;1.30;0.77;;;10.90;99.90;;;;;;4962811;28;20216;-71
2021/11/05 15:15:44;;;;;;;3.17;0.93;;;10.80;99.90;;;;;;4934722;29;20210;-72
2021/11/05 15:18:11;;;;;;;1.00;1.00;;;10.80;99.90;;;;;;4941339;29;20573;-71
2021/11/05 15:20:38;;;;;;;1.08;0.60;;;10.80;99.90;;;;;;4954561;28;20769;-72
2021/11/05 15:23:07;;;;;;;1.13;1.02;;;10.80;99.90;;;;;;4954472;28;20356;-71
2021/11/05 15:25:34;;;;;;;1.30;0.70;;;10.80;99.90;;;;;;4955073;29;20209;-70
2021/11/05 15:28:01;;;;;;;0.80;0.80;;;10.80;99.90;;;;;;4954610;29;20690;-71
2021/11/05 15:30:31;;;;;;;2.22;1.33;;;10.80;99.90;;;;;;4954520;29;20243;-69
2021/11/05 15:32:58;;;;;;;0.90;0.90;;;10.70;99.90;;;;;;4954077;29;20213;-69
2021/11/05 15:35:25;;;;;;;1.60;1.30;;;10.60;99.90;;;;;;4953296;28;20214;-70
2021/11/05 15:37:52;;;;;;;0.90;0.90;;;10.50;99.90;;;;;;4952643;28;20213;-70
2021/11/05 15:40:21;;;;;;;1.30;1.20;;;10.40;99.90;;;;;;4953123;28;20205;-71
2021/11/05 15:42:48;;;;;;;2.35;1.50;;;10.30;99.90;;;;;;4961030;28;20197;-71
2021/11/05 15:45:15;;;;;;;1.23;1.17;;;10.30;99.90;;;;;;4957917;28;20212;-70
2021/11/05 15:47:42;;;;;;;4.20;1.65;;;10.20;99.90;;;;;;4953900;28;20671;-69
2021/11/05 15:50:11;;;;;;;4.20;1.48;;;10.20;99.90;;;;;;4953065;29;20568;-71
2021/11/05 15:52:38;;;;;;;1.70;1.60;;;10.20;99.90;;;;;;4963001;28;20273;-70
2021/11/05 15:55:06;;;;;;;2.33;1.65;;;10.20;99.90;;;;;;4953987;29;20617;-71
2021/11/05 15:57:35;;;;;;;2.70;2.50;;;10.10;99.90;;;;;;4948490;28;20214;-72
2021/11/05 16:00:02;;;;;;;2.58;2.47;;;10.10;99.90;;;;;;4964927;28;20205;-71
2021/11/05 16:02:29;;;;;;;2.35;2.25;;;10.00;99.90;;;;;;4953519;28;20248;-70
2021/11/05 16:04:56;;;;;;;3.53;3.25;;;10.00;99.90;;;;;;4949202;28;20206;-70
2021/11/05 16:07:22;;;;;;;4.00;2.60;;;10.00;99.90;;;;;;4946784;28;20491;-69
2021/11/05 16:09:49;;;;;;;2.20;2.20;;;10.00;99.90;;;;;;4951467;29;20883;-69
2021/11/05 16:12:17;;;;;;;2.22;2.03;;;10.00;99.90;;;;;;4952442;29;20233;-69
2021/11/05 16:14:45;;;;;;;2.03;2.00;;;9.90;99.90;;;;;;4953216;28;20205;-70
2021/11/05 16:17:12;;;;;;;1.58;1.58;;;9.90;99.90;;;;;;4960373;28;20657;-69
2021/11/05 16:19:39;;;;;;;1.35;1.25;;;9.90;99.90;;;;;;4962944;28;20615;-70
2021/11/05 16:22:06;;;;;;;4.53;1.52;;;9.80;99.90;;;;;;4955027;29;20252;-72
2021/11/05 16:24:33;;;;;;;1.70;1.60;;;9.80;99.90;;;;;;4953310;29;20729;-73
2021/11/05 16:27:01;;;;;;;2.47;2.28;;;9.80;99.90;;;;;;4952798;29;20311;-70
2021/11/05 16:29:27;;;;;;;2.10;2.00;;;9.70;99.90;;;;;;4953992;28;20233;-69
2021/11/05 16:31:55;;;;;;;3.70;2.10;;;9.60;99.90;;;;;;4951782;28;20229;-70
2021/11/05 16:34:23;;;;;;;2.58;2.30;;;9.60;99.90;;;;;;4962610;28;20209;-69
2021/11/05 16:36:50;;;;;;;1.50;1.50;;;9.50;99.90;;;;;;4958792;28;20241;-70
2021/11/05 16:39:16;;;;;;;2.85;1.63;;;9.50;99.90;;;;;;4969455;28;20209;-68
2021/11/05 16:41:43;;;;;;;3.55;2.10;;;9.40;99.90;;;;;;4966324;28;20235;-69
2021/11/05 16:44:10;;;;;;;1.92;1.92;;;9.30;99.90;;;;;;4953425;29;20208;-69
2021/11/05 16:46:37;;;;;;;2.00;2.00;;;9.30;99.90;;;;;;4951489;28;20205;-69
2021/11/05 16:49:11;;;;;;;1.73;1.52;;;9.30;99.90;;;;;;4966265;28;20576;-72
2021/11/05 16:51:39;;;;;;;1.60;1.60;;;9.20;99.90;;;;;;4965984;28;20220;-70
2021/11/05 16:54:06;;;;;;;1.98;1.75;;;9.10;99.90;;;;;;4952159;29;20248;-69
2021/11/05 16:56:33;;;;;;;2.28;2.10;;;9.10;99.90;;;;;;4951893;28;20209;-72
2021/11/05 16:58:59;;;;;;;1.80;1.80;;;9.10;99.90;;;;;;4950098;29;20213;-69
2021/11/05 17:01:26;;;;;;;2.85;2.65;;;9.10;99.90;;;;;;4952045;28;20348;-69
2021/11/05 17:03:54;;;;;;;3.65;2.65;;;9.10;99.90;;;;;;4948401;29;20628;-70
2021/11/05 17:06:23;;;;;;;2.60;2.40;;;9.20;99.90;;;;;;4956076;28;20206;-71
2021/11/05 17:08:50;;;;;;;3.92;2.70;;;9.20;99.90;;;;;;4953056;28;20299;-69
2021/11/05 17:11:18;;;;;;;2.90;2.70;;;9.20;99.90;;;;;;4952895;28;20255;-70
2021/11/05 17:13:47;;;;;;;2.88;2.72;;;9.30;99.90;;;;;;4954834;28;20214;-70
2021/11/05 17:16:16;;;;;;;2.85;2.65;;;9.20;99.90;;;;;;4950663;28;20220;-70
2021/11/05 17:18:43;;;;;;;2.88;2.78;;;9.20;99.90;;;;;;4952634;28;20608;-69
2021/11/05 17:21:12;;;;;;;2.90;2.38;;;9.20;99.90;;;;;;4951890;29;20217;-69
2021/11/05 17:23:41;;;;;;;2.78;1.80;;;9.10;99.90;;;;;;4957758;28;20213;-68
2021/11/05 17:26:08;;;;;;;2.55;2.35;;;9.10;99.90;;;;;;4958138;28;20213;-69
2021/11/05 17:28:36;;;;;;;4.18;2.35;;;9.10;99.90;;;;;;4955297;28;20201;-69
2021/11/05 17:31:06;;;;;;;2.42;1.80;;;9.10;99.90;;;;;;4949935;29;20252;-70
2021/11/05 17:33:33;;;;;;;6.53;2.03;;;9.10;99.90;;;;;;4952189;28;20543;-69
2021/11/05 17:36:00;;;;;;;2.08;1.92;;;9.10;99.90;;;;;;4951857;29;20731;-69
2021/11/05 17:38:27;;;;;;;1.85;1.85;;;9.10;99.90;;;;;;4957903;28;20621;-69
2021/11/05 17:40:55;;;;;;;3.50;3.22;;;9.10;99.90;;;;;;4952646;28;20224;-71
2021/11/05 17:43:21;;;;;;;3.85;2.95;;;9.10;99.90;;;;;;4947138;29;20259;-72
2021/11/05 17:45:49;;;;;;;3.20;2.90;;;9.10;99.90;;;;;;4931427;29;20206;-69
2021/11/05 17:48:16;;;;;;;3.22;3.05;;;9.00;99.90;;;;;;4945508;28;20214;-68
2021/11/05 17:50:43;;;;;;;2.67;2.58;;;9.00;99.90;;;;;;4957658;28;20698;-69
2021/11/05 17:53:10;;;;;;;5.15;2.85;;;9.00;99.90;;;;;;4949345;28;20292;-70